createdAt,value
2023-05-20T05:08:30.484Z,62.10
2023-05-20T05:11:00.345Z,62.70
2023-05-20T05:13:29.883Z,62.40
2023-05-20T05:16:03.678Z,62.90
2023-05-20T05:18:33.178Z,63.30
2023-05-20T05:21:03.851Z,63.80
2023-05-20T05:23:33.603Z,64.20
2023-05-20T05:26:03.036Z,64.40
2023-05-20T05:28:32.599Z,64.40
2023-05-20T05:31:03.793Z,64.50
2023-05-20T05:33:33.265Z,64.90
2023-05-20T05:36:04.294Z,65.20
2023-05-20T05:38:33.680Z,66.00
2023-05-20T05:41:04.150Z,66.60
2023-05-20T05:43:33.586Z,67.20
2023-05-20T05:46:04.096Z,67.90
2023-05-20T05:48:33.558Z,68.30
2023-05-20T05:51:04.025Z,68.10
2023-05-20T05:53:33.430Z,68.30
2023-05-20T05:56:02.907Z,68.60
2023-05-20T05:58:32.335Z,68.70
2023-05-20T06:01:02.216Z,68.80
2023-05-20T06:03:32.678Z,68.80
2023-05-20T06:06:05.835Z,69.00
2023-05-20T06:40:54.521Z,69.70
2023-05-20T06:43:24.085Z,69.40
2023-05-20T06:45:53.722Z,68.90
2023-05-20T06:48:23.161Z,69.00
2023-05-20T06:50:53.613Z,68.50
2023-05-20T06:53:23.150Z,68.30
2023-05-20T06:55:53.027Z,67.80
2023-05-20T06:58:22.404Z,67.60
2023-05-20T07:00:51.891Z,67.80
2023-05-20T07:03:22.342Z,67.80
2023-05-20T07:05:53.037Z,67.70
2023-05-20T07:08:22.658Z,67.40
2023-05-20T07:10:52.828Z,67.90
2023-05-20T07:13:26.817Z,67.20
2023-05-20T07:15:56.886Z,67.00
2023-05-20T07:18:26.706Z,67.10
2023-05-20T07:20:58.850Z,66.60
2023-05-20T07:23:28.533Z,66.60
2023-05-20T07:25:58.163Z,66.90
2023-05-20T07:28:27.719Z,66.90
2023-05-20T07:30:58.819Z,67.10
2023-05-20T07:33:28.304Z,67.30
2023-05-20T07:35:58.381Z,67.60
2023-05-20T07:38:27.955Z,67.80
2023-05-20T08:12:22.233Z,71.20
2023-05-20T08:14:51.689Z,71.70
2023-05-20T08:17:21.384Z,73.00
2023-05-20T08:19:51.426Z,72.90
2023-05-20T08:22:20.879Z,74.20
2023-05-20T08:24:51.562Z,74.30
2023-05-20T08:27:22.282Z,75.10
2023-05-20T08:29:51.772Z,75.50
2023-05-20T08:32:21.683Z,75.50
2023-05-20T08:34:52.117Z,75.70
2023-05-20T08:37:21.788Z,75.90
2023-05-20T08:39:51.628Z,76.40
2023-05-20T08:42:25.997Z,76.00
2023-05-20T08:44:56.217Z,76.10
2023-05-20T08:47:25.804Z,75.90
2023-05-20T08:49:55.293Z,75.90
2023-05-20T08:52:25.936Z,75.10
2023-05-20T08:54:55.627Z,72.30
2023-05-20T08:57:25.827Z,72.80
2023-05-20T08:59:55.700Z,73.20
2023-05-20T09:02:25.299Z,73.40
2023-05-20T09:04:55.767Z,73.70
2023-05-20T09:07:32.226Z,74.10
2023-05-20T10:47:59.277Z,76.00
2023-05-20T10:50:46.977Z,75.80
2023-05-20T10:53:32.399Z,76.00
2023-05-20T10:56:03.757Z,76.00
2023-05-20T10:58:41.385Z,76.10
2023-05-20T11:01:12.782Z,76.20
2023-05-20T11:03:51.646Z,76.20
2023-05-20T11:06:22.352Z,75.60
2023-05-20T11:08:52.200Z,75.50
2023-05-20T11:11:22.048Z,75.90
2023-05-20T11:13:58.057Z,75.60
2023-05-20T11:16:28.239Z,75.60
2023-05-20T11:18:58.831Z,75.50
2023-05-20T11:21:28.280Z,75.50
2023-05-20T11:23:57.885Z,75.70
2023-05-20T11:26:28.579Z,75.30
2023-05-20T11:28:59.452Z,75.50
2023-05-20T11:31:30.741Z,75.30
2023-05-20T11:34:04.462Z,75.30
2023-05-20T11:36:34.072Z,75.50
2023-05-20T11:39:03.625Z,75.40
2023-05-20T11:41:33.422Z,75.00
2023-05-20T11:44:03.190Z,74.90
2023-05-20T11:46:32.711Z,73.20
2023-05-20T12:13:59.277Z,69.90
2023-05-20T12:16:28.691Z,70.00
2023-05-20T12:18:58.222Z,69.90
2023-05-20T12:21:27.686Z,70.30
2023-05-20T12:24:00.235Z,70.10
2023-05-20T12:26:30.796Z,69.30
2023-05-20T12:29:00.369Z,69.10
2023-05-20T12:31:31.648Z,69.30
2023-05-20T12:34:02.722Z,68.80
2023-05-20T12:36:34.087Z,68.50
2023-05-20T12:39:03.655Z,68.60
2023-05-20T12:41:33.054Z,68.40
2023-05-20T12:44:02.845Z,68.20
2023-05-20T12:46:32.753Z,68.30
2023-05-20T12:49:02.302Z,68.50
2023-05-20T12:51:33.450Z,69.00
2023-05-20T12:54:03.671Z,69.30
2023-05-20T12:56:33.717Z,70.10
2023-05-20T12:59:03.686Z,70.80
2023-05-20T13:01:34.386Z,71.20
2023-05-20T13:04:04.903Z,71.00
2023-05-20T13:06:34.631Z,70.70
2023-05-20T13:09:04.295Z,68.50
2023-05-20T13:11:33.713Z,68.10
2023-05-20T14:07:38.125Z,70.10
2023-05-20T14:10:08.370Z,70.60
2023-05-20T14:12:38.957Z,71.00
2023-05-20T14:15:08.754Z,71.50
2023-05-20T14:17:38.669Z,71.60
2023-05-20T14:20:09.516Z,71.60
2023-05-20T14:22:39.303Z,71.40
2023-05-20T14:25:09.036Z,71.60
2023-05-20T14:27:38.467Z,71.60
2023-05-20T14:30:08.323Z,72.10
2023-05-20T14:32:37.956Z,72.30
2023-05-20T14:35:07.673Z,72.40
2023-05-20T14:37:37.122Z,72.20
2023-05-20T14:40:09.020Z,72.30
2023-05-20T14:42:38.618Z,72.50
2023-05-20T14:45:08.290Z,72.30
2023-05-20T14:47:38.852Z,72.30
2023-05-20T14:50:09.360Z,71.50
2023-05-20T14:52:38.861Z,71.70
2023-05-20T14:55:09.691Z,71.60
2023-05-20T14:57:39.283Z,71.20
2023-05-20T15:00:09.137Z,70.60
2023-05-20T15:02:38.753Z,70.50
2023-05-20T15:05:08.436Z,70.20
2023-05-20T15:16:51.208Z,70.60
2023-05-20T15:19:20.739Z,70.70
2023-05-20T15:21:51.420Z,70.70
2023-05-20T15:24:20.978Z,71.00
2023-05-20T15:26:50.388Z,71.20
2023-05-20T15:29:20.083Z,71.40
2023-05-20T15:31:49.552Z,71.70
2023-05-20T15:34:18.972Z,71.80
2023-05-20T15:36:48.531Z,72.10
2023-05-20T15:39:17.988Z,72.20
2023-05-20T15:41:50.661Z,72.20
2023-05-20T15:44:20.524Z,72.30
2023-05-20T15:46:50.101Z,72.00
2023-05-20T15:49:19.551Z,72.00
2023-05-20T15:51:55.758Z,72.00
2023-05-20T15:54:31.646Z,72.10
2023-05-20T15:57:01.055Z,72.10
2023-05-20T15:59:30.661Z,72.20
2023-05-20T16:02:00.762Z,72.50
2023-05-20T16:04:31.523Z,72.00
2023-05-20T16:07:01.108Z,72.10
2023-05-20T16:09:30.911Z,72.40
2023-05-20T16:12:01.551Z,72.50
2023-05-20T16:14:30.975Z,72.40
2023-05-20T17:37:22.249Z,66.80
2023-05-20T17:39:52.049Z,67.30
2023-05-20T17:42:21.595Z,67.20
2023-05-20T17:44:51.075Z,66.50
2023-05-20T17:47:20.558Z,66.40
2023-05-20T17:49:50.039Z,66.60
2023-05-20T17:52:19.451Z,66.70
2023-05-20T17:54:49.334Z,67.20
2023-05-20T17:57:20.024Z,67.70
2023-05-20T17:59:49.549Z,67.20
2023-05-20T18:02:19.447Z,67.10
2023-05-20T18:04:48.875Z,67.00
2023-05-20T18:07:19.324Z,66.80
2023-05-20T18:09:49.202Z,66.80
2023-05-20T18:12:19.019Z,67.20
2023-05-20T18:14:48.844Z,67.60
2023-05-20T18:17:18.377Z,67.70
2023-05-20T18:19:47.868Z,67.70
2023-05-20T18:22:17.461Z,67.70
2023-05-20T18:24:47.006Z,68.00
2023-05-20T18:27:17.475Z,68.20
2023-05-20T18:29:48.166Z,68.10
2023-05-20T18:32:17.988Z,68.10
2023-05-20T18:34:48.097Z,68.30
2023-05-20T19:57:38.224Z,67.60
2023-05-20T20:00:08.826Z,67.90
2023-05-20T20:02:38.347Z,68.50
2023-05-20T20:05:08.904Z,68.80
2023-05-20T20:07:38.404Z,68.80
2023-05-20T20:10:08.108Z,68.70
2023-05-20T20:12:38.761Z,68.80
2023-05-20T20:15:08.439Z,69.00
2023-05-20T20:17:38.770Z,69.00
2023-05-20T20:20:13.512Z,69.10
2023-05-20T20:22:43.461Z,69.20
2023-05-20T20:25:16.838Z,69.30
2023-05-20T20:27:46.334Z,69.30
2023-05-20T20:30:17.182Z,69.60
2023-05-20T20:32:49.760Z,69.80
2023-05-20T20:35:20.275Z,70.00
2023-05-20T20:37:49.720Z,70.20
2023-05-20T20:40:19.550Z,70.40
2023-05-20T20:42:50.344Z,70.60
2023-05-20T20:45:20.200Z,70.90
2023-05-20T20:47:52.422Z,71.00
2023-05-20T20:50:22.060Z,70.90
2023-05-20T20:52:51.463Z,71.20
2023-05-20T20:55:21.059Z,71.10
